Time;durP1;ratioP1;P1;durP2;ratioP2;P2;SDS_P1;SDS_P2;PMS_P1;PMS_P2;Temp;Humidity;BMP_temperature;BMP_pressure;BME280_temperature;BME280_humidity;BME280_pressure;Samples;Min_cycle;Max_cycle;Signal;HPM_P1;HPM_P2
2023/11/13 00:00:04;;;;;;;9.90;2.83;;;;;;;;;;5017868;28;20494;-61
2023/11/13 00:02:30;;;;;;;13.35;3.10;;;;;;;;;;5011108;28;20045;-62
2023/11/13 00:04:56;;;;;;;9.45;3.83;;;;;;;;;;5038492;28;20060;-62
2023/11/13 00:07:22;;;;;;;9.93;4.13;;;;;;;;;;5027187;28;20040;-60
2023/11/13 00:09:49;;;;;;;11.43;3.85;;;;;;;;;;5036576;28;20021;-61
2023/11/13 00:12:15;;;;;;;10.75;3.72;;;;;;;;;;5033010;28;20478;-61
2023/11/13 00:14:41;;;;;;;7.82;2.63;;;;;;;;;;5037653;28;20530;-61
2023/11/13 00:17:07;;;;;;;5.97;3.05;;;;;;;;;;5030375;28;20025;-61
2023/11/13 00:19:35;;;;;;;12.02;2.95;;;;;;;;;;5039701;28;20118;-62
2023/11/13 00:22:02;;;;;;;9.15;3.33;;;;;;;;;;5030000;28;20032;-62
2023/11/13 00:24:28;;;;;;;11.40;3.10;;;;;;;;;;5036589;28;20024;-60
2023/11/13 00:26:54;;;;;;;13.35;3.30;;;;;;;;;;5039067;28;20041;-60
2023/11/13 00:29:20;;;;;;;9.35;2.65;;;;;;;;;;5018634;28;20655;-60
2023/11/13 00:31:46;;;;;;;10.40;2.20;;;;;;;;;;5035013;28;20025;-61
2023/11/13 00:34:13;;;;;;;6.70;2.30;;;;;;;;;;5040432;28;20025;-60
2023/11/13 00:36:39;;;;;;;6.05;2.05;;;;;;;;;;5047808;28;20811;-61
2023/11/13 00:39:10;;;;;;;3.10;1.90;;;;;;;;;;5044803;28;20040;-61
2023/11/13 00:41:37;;;;;;;6.60;2.30;;;;;;;;;;5036085;28;20033;-61
2023/11/13 00:44:04;;;;;;;5.78;2.85;;;;;;;;;;5031784;28;20075;-61
2023/11/13 00:46:30;;;;;;;3.95;2.20;;;;;;;;;;5034667;28;20079;-62
2023/11/13 00:48:56;;;;;;;6.43;2.65;;;;;;;;;;5036455;28;20030;-60
2023/11/13 00:51:23;;;;;;;4.13;2.33;;;;;;;;;;5029625;28;20040;-62
2023/11/13 00:53:49;;;;;;;4.55;1.92;;;;;;;;;;5033063;28;20149;-61
2023/11/13 00:56:16;;;;;;;8.10;2.30;;;;;;;;;;5040085;28;20162;-61
2023/11/13 00:58:42;;;;;;;2.95;1.60;;;;;;;;;;5019840;28;20408;-60
2023/11/13 01:01:13;;;;;;;3.45;2.10;;;;;;;;;;5038549;28;20196;-60
2023/11/13 01:03:42;;;;;;;4.13;1.88;;;;;;;;;;5019762;28;20041;-61
2023/11/13 01:06:08;;;;;;;5.03;2.50;;;;;;;;;;5022229;28;20108;-61
2023/11/13 01:08:34;;;;;;;3.83;1.80;;;;;;;;;;5040649;28;20041;-61
2023/11/13 01:11:01;;;;;;;3.97;1.88;;;;;;;;;;5041801;28;20104;-66
2023/11/13 01:13:27;;;;;;;5.35;2.50;;;;;;;;;;5029345;28;20036;-60
2023/11/13 01:15:54;;;;;;;6.30;2.08;;;;;;;;;;5041625;28;20076;-61
2023/11/13 01:18:21;;;;;;;3.78;1.67;;;;;;;;;;5042008;28;20026;-61
2023/11/13 01:20:47;;;;;;;5.22;1.92;;;;;;;;;;5044581;28;20021;-61
2023/11/13 01:23:13;;;;;;;2.33;1.73;;;;;;;;;;5038377;28;20059;-61
2023/11/13 01:25:43;;;;;;;4.50;1.85;;;;;;;;;;5039786;28;20056;-61
2023/11/13 01:28:09;;;;;;;6.22;1.75;;;;;;;;;;5013678;28;20029;-61
2023/11/13 01:30:35;;;;;;;4.13;1.70;;;;;;;;;;5038903;28;20110;-61
2023/11/13 01:33:02;;;;;;;3.40;1.90;;;;;;;;;;5038213;28;20085;-61
2023/11/13 01:35:28;;;;;;;3.72;2.20;;;;;;;;;;5023045;28;20115;-61
2023/11/13 01:37:54;;;;;;;3.42;1.73;;;;;;;;;;5046298;28;20041;-62
2023/11/13 01:40:20;;;;;;;5.13;1.70;;;;;;;;;;5039502;28;20033;-60
2023/11/13 01:42:47;;;;;;;4.72;1.75;;;;;;;;;;5038823;28;20037;-61
2023/11/13 01:45:17;;;;;;;1.98;1.60;;;;;;;;;;5037270;28;20095;-60
2023/11/13 01:47:45;;;;;;;2.08;1.67;;;;;;;;;;5040046;28;20372;-61
2023/11/13 01:50:12;;;;;;;1.92;1.55;;;;;;;;;;5037818;28;20021;-60
2023/11/13 01:52:39;;;;;;;5.22;2.00;;;;;;;;;;5043329;28;20033;-60
2023/11/13 01:55:05;;;;;;;3.42;1.73;;;;;;;;;;5040866;28;20039;-63
2023/11/13 01:57:32;;;;;;;3.75;1.52;;;;;;;;;;5039153;28;20123;-64
2023/11/13 01:59:59;;;;;;;3.55;1.60;;;;;;;;;;5041553;28;20494;-61
2023/11/13 02:02:26;;;;;;;1.55;1.50;;;;;;;;;;5036545;28;20483;-61
2023/11/13 02:04:52;;;;;;;2.50;1.50;;;;;;;;;;5042371;28;20048;-62
2023/11/13 02:07:19;;;;;;;4.85;1.63;;;;;;;;;;5043753;28;20040;-62
2023/11/13 02:09:45;;;;;;;1.42;1.27;;;;;;;;;;5040898;28;20025;-62
2023/11/13 02:12:12;;;;;;;5.00;1.85;;;;;;;;;;5039209;28;20090;-61
2023/11/13 02:14:38;;;;;;;3.22;1.52;;;;;;;;;;5040425;28;20086;-61
2023/11/13 02:17:05;;;;;;;1.40;1.30;;;;;;;;;;5036713;28;20026;-64
2023/11/13 02:19:31;;;;;;;2.92;1.52;;;;;;;;;;5034046;28;20033;-61
2023/11/13 02:22:01;;;;;;;2.55;1.42;;;;;;;;;;5036254;28;20108;-61
2023/11/13 02:24:27;;;;;;;2.63;1.80;;;;;;;;;;5038408;28;20025;-61
2023/11/13 02:26:53;;;;;;;2.35;1.65;;;;;;;;;;5036900;28;20072;-61
2023/11/13 02:29:20;;;;;;;1.98;1.73;;;;;;;;;;5041772;28;20029;-61
2023/11/13 02:31:52;;;;;;;1.70;1.60;;;;;;;;;;5033764;28;20039;-61
2023/11/13 02:34:19;;;;;;;4.35;2.03;;;;;;;;;;5034021;28;20108;-61
2023/11/13 02:36:48;;;;;;;6.47;2.28;;;;;;;;;;5040613;28;20502;-62
2023/11/13 02:39:16;;;;;;;2.50;1.60;;;;;;;;;;5040648;28;20050;-61
2023/11/13 02:41:43;;;;;;;2.15;1.58;;;;;;;;;;5039378;28;20040;-61
2023/11/13 02:44:09;;;;;;;4.32;1.52;;;;;;;;;;5039308;28;20095;-61
2023/11/13 02:46:35;;;;;;;1.23;1.17;;;;;;;;;;5031775;28;20433;-62
2023/11/13 02:49:01;;;;;;;1.42;1.38;;;;;;;;;;5041478;28;20029;-61
2023/11/13 02:51:28;;;;;;;1.85;1.23;;;;;;;;;;5041499;28;20510;-61
2023/11/13 02:53:54;;;;;;;1.33;1.30;;;;;;;;;;5039834;28;20063;-61
2023/11/13 02:56:21;;;;;;;1.85;1.15;;;;;;;;;;5045605;28;20554;-61
2023/11/13 02:58:49;;;;;;;2.47;1.30;;;;;;;;;;5045369;28;20107;-60
2023/11/13 03:01:16;;;;;;;1.05;1.05;;;;;;;;;;5025397;28;20465;-61
2023/11/13 03:03:45;;;;;;;1.48;1.38;;;;;;;;;;5044313;28;20041;-60
2023/11/13 03:06:12;;;;;;;1.05;1.05;;;;;;;;;;5040381;28;20029;-61
2023/11/13 03:08:40;;;;;;;1.27;1.20;;;;;;;;;;5038005;28;20040;-60
2023/11/13 03:11:06;;;;;;;1.95;1.58;;;;;;;;;;5037928;28;20029;-61
2023/11/13 03:13:32;;;;;;;2.35;1.30;;;;;;;;;;5036889;28;20514;-60
2023/11/13 03:15:58;;;;;;;1.85;1.50;;;;;;;;;;5032316;28;20040;-61
2023/11/13 03:18:25;;;;;;;2.42;1.40;;;;;;;;;;5034813;28;20032;-61
2023/11/13 03:20:51;;;;;;;1.58;1.20;;;;;;;;;;5036805;28;20074;-60
2023/11/13 03:23:17;;;;;;;1.25;1.20;;;;;;;;;;5017944;28;20121;-67
2023/11/13 03:25:43;;;;;;;1.45;1.13;;;;;;;;;;5036244;28;20045;-63
2023/11/13 03:28:09;;;;;;;3.17;1.58;;;;;;;;;;5033259;28;20017;-61
2023/11/13 03:30:39;;;;;;;2.90;1.40;;;;;;;;;;5034208;28;20061;-60
2023/11/13 03:33:06;;;;;;;3.58;1.73;;;;;;;;;;5031306;28;20025;-61
2023/11/13 03:35:32;;;;;;;2.58;1.45;;;;;;;;;;5035140;28;20029;-61
2023/11/13 03:37:58;;;;;;;2.40;1.40;;;;;;;;;;5032338;28;20036;-61
2023/11/13 03:40:24;;;;;;;1.15;1.15;;;;;;;;;;5024460;28;20032;-61
2023/11/13 03:42:50;;;;;;;1.52;1.52;;;;;;;;;;5040856;28;20456;-64
2023/11/13 03:45:17;;;;;;;1.00;1.00;;;;;;;;;;5035299;28;20029;-61
2023/11/13 03:47:43;;;;;;;0.90;0.90;;;;;;;;;;5038648;28;20067;-66
2023/11/13 03:50:10;;;;;;;4.57;1.33;;;;;;;;;;5040039;28;20538;-61
2023/11/13 03:52:36;;;;;;;0.90;0.90;;;;;;;;;;5029664;28;20025;-60
2023/11/13 03:55:02;;;;;;;1.33;0.90;;;;;;;;;;5039409;28;20713;-60
2023/11/13 03:57:29;;;;;;;0.80;0.80;;;;;;;;;;5034154;28;20040;-61
2023/11/13 03:59:55;;;;;;;1.02;1.02;;;;;;;;;;5021713;28;20037;-66
2023/11/13 04:02:21;;;;;;;0.90;0.90;;;;;;;;;;5030114;28;20176;-64
2023/11/13 04:04:47;;;;;;;0.90;0.90;;;;;;;;;;5020128;28;20029;-64
2023/11/13 04:07:13;;;;;;;1.00;1.00;;;;;;;;;;5016027;28;20785;-65
2023/11/13 04:09:39;;;;;;;0.80;0.80;;;;;;;;;;5018118;28;20026;-65
2023/11/13 04:12:07;;;;;;;0.90;0.90;;;;;;;;;;5017437;28;20025;-68
2023/11/13 04:14:34;;;;;;;0.85;0.85;;;;;;;;;;5014515;28;20061;-66
2023/11/13 04:17:00;;;;;;;1.00;1.00;;;;;;;;;;5021317;28;20022;-67
2023/11/13 04:19:29;;;;;;;0.90;0.90;;;;;;;;;;5000656;28;20069;-67
2023/11/13 04:21:55;;;;;;;0.80;0.80;;;;;;;;;;5014513;28;20044;-67
2023/11/13 04:24:21;;;;;;;0.80;0.80;;;;;;;;;;5020818;28;20041;-72
2023/11/13 04:26:48;;;;;;;1.00;1.00;;;;;;;;;;5012096;28;20467;-68
2023/11/13 04:29:14;;;;;;;0.80;0.80;;;;;;;;;;5019151;28;20031;-68
2023/11/13 04:31:40;;;;;;;0.80;0.80;;;;;;;;;;5009771;28;20033;-68
2023/11/13 04:34:06;;;;;;;0.80;0.80;;;;;;;;;;5016783;28;20037;-67
2023/11/13 04:36:33;;;;;;;1.20;1.13;;;;;;;;;;5025144;28;20071;-68
2023/11/13 04:38:59;;;;;;;1.45;1.35;;;;;;;;;;5014122;28;20127;-67
2023/11/13 04:41:26;;;;;;;1.58;1.20;;;;;;;;;;5017463;28;20038;-68
2023/11/13 04:43:52;;;;;;;4.05;1.40;;;;;;;;;;5016920;28;20136;-68
2023/11/13 04:46:19;;;;;;;1.83;1.50;;;;;;;;;;5022310;28;20029;-69
2023/11/13 04:48:45;;;;;;;2.45;1.52;;;;;;;;;;5021211;28;20034;-68
2023/11/13 04:51:11;;;;;;;2.42;1.50;;;;;;;;;;5021270;28;20394;-69
2023/11/13 04:53:38;;;;;;;4.38;1.85;;;;;;;;;;5021881;28;20029;-68
2023/11/13 04:56:09;;;;;;;3.10;1.70;;;;;;;;;;5004203;28;20026;-67
2023/11/13 04:58:36;;;;;;;3.95;1.83;;;;;;;;;;5005249;28;20034;-68
2023/11/13 05:01:02;;;;;;;3.97;1.80;;;;;;;;;;4998248;28;20503;-68
2023/11/13 05:03:28;;;;;;;6.80;2.45;;;;;;;;;;5024617;28;20042;-67
2023/11/13 05:05:54;;;;;;;3.22;2.35;;;;;;;;;;5037609;28;20033;-68
2023/11/13 05:08:20;;;;;;;4.53;1.73;;;;;;;;;;5036534;28;20040;-67
2023/11/13 05:10:46;;;;;;;6.18;2.30;;;;;;;;;;5034406;28;20837;-67
2023/11/13 05:13:15;;;;;;;3.85;1.80;;;;;;;;;;5037286;28;20029;-68
2023/11/13 05:15:44;;;;;;;3.67;2.10;;;;;;;;;;5040288;28;20033;-68
2023/11/13 05:18:11;;;;;;;10.13;2.38;;;;;;;;;;5026638;28;20119;-68
2023/11/13 05:20:43;;;;;;;6.35;2.53;;;;;;;;;;5040780;28;20264;-68
2023/11/13 05:23:09;;;;;;;6.50;2.05;;;;;;;;;;5043317;28;20512;-70
2023/11/13 05:25:36;;;;;;;3.95;1.70;;;;;;;;;;5023936;28;20132;-68
2023/11/13 05:28:06;;;;;;;5.65;2.10;;;;;;;;;;5041273;28;21166;-68
2023/11/13 05:30:32;;;;;;;7.65;2.25;;;;;;;;;;5037258;28;20028;-68
2023/11/13 05:32:59;;;;;;;2.78;1.70;;;;;;;;;;5044489;28;20024;-68
2023/11/13 05:35:25;;;;;;;3.10;2.22;;;;;;;;;;5039983;28;20081;-67
2023/11/13 05:37:51;;;;;;;2.55;1.50;;;;;;;;;;5037033;28;20030;-67
2023/11/13 05:40:19;;;;;;;1.63;1.52;;;;;;;;;;5042071;28;20446;-68
2023/11/13 05:42:45;;;;;;;1.25;1.20;;;;;;;;;;5022913;28;20227;-66
2023/11/13 05:45:14;;;;;;;1.17;1.17;;;;;;;;;;5035434;28;20037;-67
2023/11/13 05:47:41;;;;;;;1.38;1.23;;;;;;;;;;5027699;28;20037;-68
2023/11/13 05:50:08;;;;;;;1.30;1.20;;;;;;;;;;5019171;28;20174;-68
2023/11/13 05:52:34;;;;;;;2.85;1.52;;;;;;;;;;5038421;28;20033;-68
2023/11/13 05:55:00;;;;;;;1.30;1.20;;;;;;;;;;5033918;28;20111;-68
2023/11/13 05:57:26;;;;;;;3.30;1.20;;;;;;;;;;5037526;28;20692;-68
2023/11/13 05:59:53;;;;;;;1.05;1.05;;;;;;;;;;5039204;28;20060;-68
2023/11/13 06:02:19;;;;;;;1.33;1.33;;;;;;;;;;5039136;28;20100;-67
2023/11/13 06:04:45;;;;;;;1.10;1.10;;;;;;;;;;5036374;28;20056;-68
2023/11/13 06:07:11;;;;;;;1.15;1.10;;;;;;;;;;5036456;28;20033;-69
2023/11/13 06:09:38;;;;;;;1.27;1.15;;;;;;;;;;5030315;28;20383;-67
2023/11/13 06:12:05;;;;;;;1.70;1.17;;;;;;;;;;5029901;28;20433;-67
2023/11/13 06:14:32;;;;;;;3.30;1.25;;;;;;;;;;5039514;28;20051;-69
2023/11/13 06:16:58;;;;;;;1.50;1.10;;;;;;;;;;5036851;28;20387;-68
2023/11/13 06:19:25;;;;;;;2.22;1.10;;;;;;;;;;5015700;28;20451;-68
2023/11/13 06:21:51;;;;;;;3.33;1.45;;;;;;;;;;5045638;28;20048;-68
2023/11/13 06:24:17;;;;;;;1.52;1.20;;;;;;;;;;5035095;28;20040;-69
2023/11/13 06:26:44;;;;;;;1.20;1.20;;;;;;;;;;5040221;28;20037;-69
2023/11/13 06:29:11;;;;;;;1.95;1.42;;;;;;;;;;5035052;28;20024;-74
2023/11/13 06:31:38;;;;;;;2.75;1.20;;;;;;;;;;5037336;28;20543;-68
2023/11/13 06:34:04;;;;;;;1.23;1.15;;;;;;;;;;5039364;28;20086;-68
2023/11/13 06:36:33;;;;;;;2.70;1.83;;;;;;;;;;5040407;28;20033;-69
2023/11/13 06:39:01;;;;;;;1.88;1.50;;;;;;;;;;5034795;28;20029;-68
2023/11/13 06:41:27;;;;;;;3.05;1.60;;;;;;;;;;5040636;28;20147;-68
2023/11/13 06:43:55;;;;;;;2.63;1.48;;;;;;;;;;5016735;28;20037;-70
2023/11/13 06:46:21;;;;;;;1.10;1.10;;;;;;;;;;5035536;28;20025;-67
2023/11/13 06:48:49;;;;;;;1.88;1.67;;;;;;;;;;5040924;28;20033;-68
2023/11/13 06:51:15;;;;;;;1.60;1.50;;;;;;;;;;5036948;28;20060;-68
2023/11/13 06:53:41;;;;;;;2.30;1.55;;;;;;;;;;5038192;28;20025;-69
2023/11/13 06:56:09;;;;;;;4.47;1.55;;;;;;;;;;5040081;28;20465;-67
2023/11/13 06:58:36;;;;;;;1.60;1.50;;;;;;;;;;5037525;28;20589;-68
2023/11/13 07:01:05;;;;;;;3.58;1.40;;;;;;;;;;5035977;28;20264;-68
2023/11/13 07:03:32;;;;;;;4.13;1.50;;;;;;;;;;5034573;28;20049;-69
2023/11/13 07:05:59;;;;;;;3.00;1.67;;;;;;;;;;5033715;28;20033;-67
2023/11/13 07:08:25;;;;;;;2.17;1.40;;;;;;;;;;5033613;28;20047;-68
2023/11/13 07:10:51;;;;;;;1.38;1.30;;;;;;;;;;5022579;28;20036;-69
2023/11/13 07:13:18;;;;;;;1.20;1.20;;;;;;;;;;5036335;28;20193;-67
2023/11/13 07:15:44;;;;;;;2.83;1.60;;;;;;;;;;5033208;28;20037;-67
2023/11/13 07:18:11;;;;;;;3.63;1.40;;;;;;;;;;5036934;28;20037;-69
2023/11/13 07:20:39;;;;;;;1.85;1.75;;;;;;;;;;5037340;28;20076;-69
2023/11/13 07:23:05;;;;;;;2.00;1.25;;;;;;;;;;5043017;28;20108;-68
2023/11/13 07:25:32;;;;;;;1.38;1.27;;;;;;;;;;5041343;28;20120;-68
2023/11/13 07:27:58;;;;;;;3.42;1.50;;;;;;;;;;5031501;28;20136;-68
2023/11/13 07:30:26;;;;;;;2.10;1.20;;;;;;;;;;5028078;28;20029;-66
2023/11/13 07:32:52;;;;;;;3.50;1.80;;;;;;;;;;5031125;28;20100;-71
2023/11/13 07:35:18;;;;;;;3.38;1.52;;;;;;;;;;5039220;28;20086;-66
2023/11/13 07:37:45;;;;;;;2.35;1.30;;;;;;;;;;5030446;28;20021;-65
2023/11/13 07:40:13;;;;;;;1.35;1.35;;;;;;;;;;5039274;28;20350;-66
2023/11/13 07:42:43;;;;;;;3.15;1.40;;;;;;;;;;5033050;28;20036;-66
2023/11/13 07:45:11;;;;;;;2.78;1.23;;;;;;;;;;5034070;28;20040;-67
2023/11/13 07:47:39;;;;;;;2.30;1.30;;;;;;;;;;5028492;28;20033;-67
2023/11/13 07:50:11;;;;;;;1.10;1.10;;;;;;;;;;5035696;28;20066;-68
2023/11/13 07:52:37;;;;;;;4.55;1.73;;;;;;;;;;5012341;28;20021;-67
2023/11/13 07:55:04;;;;;;;2.00;1.30;;;;;;;;;;5034758;28;20035;-68
2023/11/13 07:57:30;;;;;;;1.58;1.20;;;;;;;;;;5034891;28;20390;-68
2023/11/13 07:59:56;;;;;;;1.88;1.33;;;;;;;;;;5036808;28;20033;-68
2023/11/13 08:02:22;;;;;;;1.52;1.42;;;;;;;;;;5035418;28;20046;-69
2023/11/13 08:04:48;;;;;;;1.45;1.38;;;;;;;;;;5033170;28;20535;-69
2023/11/13 08:07:14;;;;;;;3.35;1.85;;;;;;;;;;5035705;28;20025;-69
2023/11/13 08:09:41;;;;;;;3.83;1.70;;;;;;;;;;5032666;28;20035;-68
2023/11/13 08:12:07;;;;;;;2.00;1.80;;;;;;;;;;5031705;28;20060;-68
2023/11/13 08:14:33;;;;;;;4.30;1.55;;;;;;;;;;5034522;28;20036;-68
2023/11/13 08:17:00;;;;;;;2.42;1.75;;;;;;;;;;5035572;28;20088;-67
2023/11/13 08:19:27;;;;;;;8.13;2.05;;;;;;;;;;5036798;28;20040;-68
2023/11/13 08:21:53;;;;;;;3.42;1.63;;;;;;;;;;5032400;28;20037;-68
2023/11/13 08:24:19;;;;;;;3.47;1.80;;;;;;;;;;5039061;28;20036;-67
2023/11/13 08:26:46;;;;;;;1.90;1.73;;;;;;;;;;5034542;28;20033;-68
2023/11/13 08:29:15;;;;;;;6.32;2.30;;;;;;;;;;5042416;28;20040;-68
2023/11/13 08:31:42;;;;;;;3.42;1.75;;;;;;;;;;5032450;28;20110;-68
2023/11/13 08:34:08;;;;;;;4.57;2.30;;;;;;;;;;5036104;28;20412;-67
2023/11/13 08:36:34;;;;;;;2.05;1.63;;;;;;;;;;5040618;28;20394;-67
2023/11/13 08:39:01;;;;;;;5.63;2.47;;;;;;;;;;5033475;28;20040;-68
2023/11/13 08:41:32;;;;;;;3.38;1.83;;;;;;;;;;5037893;28;20141;-67
2023/11/13 08:43:59;;;;;;;3.80;1.88;;;;;;;;;;5022505;28;20130;-69
2023/11/13 08:46:25;;;;;;;6.82;2.13;;;;;;;;;;5033385;28;20056;-68
2023/11/13 08:48:51;;;;;;;3.28;1.73;;;;;;;;;;5032626;28;20021;-68
2023/11/13 08:51:18;;;;;;;6.50;2.17;;;;;;;;;;5031211;28;20115;-70
2023/11/13 08:53:46;;;;;;;5.47;2.00;;;;;;;;;;5025390;28;20021;-69
2023/11/13 08:56:15;;;;;;;3.80;1.70;;;;;;;;;;5017790;28;20048;-68
2023/11/13 08:58:42;;;;;;;5.50;1.80;;;;;;;;;;5037076;28;20549;-68
2023/11/13 09:01:08;;;;;;;7.65;2.42;;;;;;;;;;5037709;28;20391;-69
2023/11/13 09:03:34;;;;;;;4.10;2.35;;;;;;;;;;5037824;28;20038;-68
2023/11/13 09:06:06;;;;;;;7.57;2.10;;;;;;;;;;5021600;28;20052;-68
2023/11/13 09:08:35;;;;;;;9.88;2.85;;;;;;;;;;5039980;28;20033;-70
2023/11/13 09:11:01;;;;;;;7.38;2.38;;;;;;;;;;5035918;28;20540;-70
2023/11/13 09:13:29;;;;;;;5.47;2.10;;;;;;;;;;5036084;28;20026;-69
2023/11/13 09:15:55;;;;;;;8.50;2.30;;;;;;;;;;5031336;28;20343;-68
2023/11/13 09:18:26;;;;;;;7.47;1.83;;;;;;;;;;5034173;28;20355;-68
2023/11/13 09:20:54;;;;;;;3.78;1.80;;;;;;;;;;5031008;28;20037;-67
2023/11/13 09:23:21;;;;;;;5.80;2.50;;;;;;;;;;5015305;28;20045;-70
2023/11/13 09:25:47;;;;;;;8.52;2.72;;;;;;;;;;5030914;28;20588;-67
2023/11/13 09:28:13;;;;;;;8.68;2.20;;;;;;;;;;5013530;28;20145;-70
2023/11/13 09:30:39;;;;;;;4.88;2.88;;;;;;;;;;5038192;28;20055;-69
2023/11/13 09:33:10;;;;;;;11.60;2.78;;;;;;;;;;5027084;28;20379;-69
2023/11/13 09:35:36;;;;;;;7.38;3.10;;;;;;;;;;5036459;28;20039;-69
2023/11/13 09:38:03;;;;;;;4.13;2.42;;;;;;;;;;5042065;28;20589;-68
2023/11/13 09:40:29;;;;;;;8.10;3.28;;;;;;;;;;5040559;28;20478;-68
2023/11/13 09:43:12;;;;;;;8.13;2.67;;;;;;;;;;5038057;28;20718;-69
2023/11/13 09:45:42;;;;;;;7.57;2.45;;;;;;;;;;5036399;28;20442;-68
2023/11/13 09:48:08;;;;;;;7.82;2.60;;;;;;;;;;5033532;28;20036;-70
2023/11/13 09:50:37;;;;;;;5.05;2.65;;;;;;;;;;5016522;28;20032;-69
2023/11/13 09:53:04;;;;;;;8.07;2.80;;;;;;;;;;5028254;28;20021;-70
2023/11/13 09:55:31;;;;;;;10.25;3.03;;;;;;;;;;5036303;28;20344;-67
2023/11/13 09:57:57;;;;;;;8.13;2.40;;;;;;;;;;5017728;28;20126;-71
2023/11/13 10:00:23;;;;;;;6.90;2.30;;;;;;;;;;5019187;28;20048;-72
2023/11/13 10:02:51;;;;;;;11.77;2.35;;;;;;;;;;5039393;28;20045;-71
2023/11/13 10:05:17;;;;;;;7.80;2.65;;;;;;;;;;5032654;28;20029;-71
2023/11/13 10:07:48;;;;;;;7.30;2.70;;;;;;;;;;5031896;28;20037;-70
2023/11/13 10:10:19;;;;;;;8.63;3.10;;;;;;;;;;5035798;28;20037;-71
2023/11/13 10:12:47;;;;;;;5.85;2.05;;;;;;;;;;5030927;28;20635;-70
2023/11/13 10:15:13;;;;;;;6.38;2.22;;;;;;;;;;5037620;28;20085;-71
2023/11/13 10:17:44;;;;;;;10.13;2.53;;;;;;;;;;5017006;28;20122;-70
2023/11/13 10:20:11;;;;;;;12.02;3.53;;;;;;;;;;5035555;28;20509;-71
2023/11/13 10:22:38;;;;;;;7.40;2.90;;;;;;;;;;5038275;28;20513;-71
2023/11/13 10:25:06;;;;;;;15.68;3.20;;;;;;;;;;5021834;28;20036;-70
2023/11/13 10:27:33;;;;;;;10.27;3.40;;;;;;;;;;5032608;28;20274;-71
2023/11/13 10:30:03;;;;;;;11.88;2.78;;;;;;;;;;5018058;28;20025;-71
2023/11/13 10:32:30;;;;;;;8.70;2.55;;;;;;;;;;5035893;28;20036;-71
2023/11/13 10:34:57;;;;;;;10.20;2.55;;;;;;;;;;5032368;28;20025;-71
2023/11/13 10:37:24;;;;;;;9.07;3.03;;;;;;;;;;5042930;28;20116;-71
2023/11/13 10:39:51;;;;;;;14.60;3.00;;;;;;;;;;5019241;28;20079;-72
2023/11/13 10:42:22;;;;;;;12.35;2.95;;;;;;;;;;5035928;28;20021;-70
2023/11/13 10:45:00;;;;;;;5.70;3.20;;;;;;;;;;5018660;28;20064;-71
2023/11/13 10:47:35;;;;;;;8.15;2.50;;;;;;;;;;5039954;28;20028;-70
2023/11/13 10:50:02;;;;;;;5.82;2.40;;;;;;;;;;5022090;28;20030;-72
2023/11/13 10:52:29;;;;;;;5.97;2.95;;;;;;;;;;5032752;28;20104;-70
2023/11/13 10:55:04;;;;;;;10.35;4.53;;;;;;;;;;5035535;28;20025;-70
2023/11/13 10:57:31;;;;;;;10.30;2.97;;;;;;;;;;5040279;28;20029;-73
2023/11/13 10:59:57;;;;;;;10.23;3.08;;;;;;;;;;5012159;28;20390;-73
2023/11/13 11:02:32;;;;;;;9.23;3.10;;;;;;;;;;5038124;28;20076;-70
2023/11/13 11:05:09;;;;;;;5.30;3.37;;;;;;;;;;5021261;28;20025;-71
2023/11/13 11:07:36;;;;;;;9.80;3.15;;;;;;;;;;5033705;28;20387;-70
2023/11/13 11:10:05;;;;;;;11.68;3.30;;;;;;;;;;5017646;28;20108;-72
2023/11/13 11:12:45;;;;;;;8.02;2.63;;;;;;;;;;5033284;28;20090;-72
2023/11/13 11:15:40;;;;;;;9.70;3.55;;;;;;;;;;5039600;28;20098;-72
2023/11/13 11:18:17;;;;;;;4.38;2.80;;;;;;;;;;5034133;28;20540;-72
2023/11/13 11:20:48;;;;;;;8.25;3.17;;;;;;;;;;5035072;28;20564;-71
2023/11/13 11:23:14;;;;;;;7.90;2.63;;;;;;;;;;5028867;28;20033;-73
2023/11/13 11:25:46;;;;;;;7.82;2.47;;;;;;;;;;5017082;28;20049;-70
2023/11/13 11:28:42;;;;;;;9.98;3.08;;;;;;;;;;5035292;28;20120;-71
2023/11/13 11:31:27;;;;;;;8.23;2.60;;;;;;;;;;5000505;28;20037;-71
2023/11/13 11:33:55;;;;;;;8.05;3.10;;;;;;;;;;5033929;28;20428;-69
2023/11/13 11:36:21;;;;;;;6.20;3.28;;;;;;;;;;5031342;28;20514;-72
2023/11/13 11:38:47;;;;;;;10.68;2.65;;;;;;;;;;5032181;28;20072;-71
2023/11/13 11:41:41;;;;;;;6.50;2.50;;;;;;;;;;5031035;28;20044;-72
2023/11/13 11:44:17;;;;;;;10.15;4.30;;;;;;;;;;5029197;28;20532;-71
2023/11/13 11:46:47;;;;;;;4.80;3.00;;;;;;;;;;5030927;28;20033;-71
2023/11/13 11:49:27;;;;;;;7.10;4.15;;;;;;;;;;5034059;28;20029;-71
2023/11/13 11:51:59;;;;;;;7.82;2.75;;;;;;;;;;5027107;28;20035;-70
2023/11/13 11:54:25;;;;;;;9.60;2.72;;;;;;;;;;5012498;28;20029;-71
2023/11/13 11:57:17;;;;;;;6.85;2.40;;;;;;;;;;5032089;28;20613;-72
2023/11/13 11:59:45;;;;;;;12.38;3.47;;;;;;;;;;5025323;28;20045;-72
2023/11/13 12:02:11;;;;;;;7.07;3.20;;;;;;;;;;5031957;28;20386;-72
2023/11/13 12:04:38;;;;;;;5.80;2.70;;;;;;;;;;5034955;28;20066;-69
2023/11/13 12:07:14;;;;;;;6.07;2.63;;;;;;;;;;5034328;28;20033;-69
2023/11/13 12:09:43;;;;;;;7.72;2.78;;;;;;;;;;5034504;28;20040;-69
2023/11/13 12:12:11;;;;;;;9.02;2.67;;;;;;;;;;5031752;28;20059;-71
2023/11/13 12:14:37;;;;;;;8.93;2.80;;;;;;;;;;5035071;28;20079;-70
2023/11/13 12:17:07;;;;;;;7.45;3.03;;;;;;;;;;5031370;28;20042;-70
2023/11/13 12:19:33;;;;;;;11.38;3.75;;;;;;;;;;5028190;28;20124;-71
2023/11/13 12:21:59;;;;;;;14.77;3.00;;;;;;;;;;5037629;28;20659;-71
2023/11/13 12:24:25;;;;;;;9.27;3.58;;;;;;;;;;5043579;28;20033;-72
2023/11/13 12:26:56;;;;;;;12.45;2.80;;;;;;;;;;5040665;28;20466;-71
2023/11/13 12:29:22;;;;;;;10.65;2.70;;;;;;;;;;5033527;28;20174;-73
2023/11/13 12:31:53;;;;;;;6.07;2.45;;;;;;;;;;5039860;28;20037;-71
2023/11/13 12:34:19;;;;;;;11.10;2.92;;;;;;;;;;5040931;28;20029;-69
2023/11/13 12:36:49;;;;;;;7.93;3.47;;;;;;;;;;5031275;28;20029;-70
2023/11/13 12:39:19;;;;;;;10.15;3.28;;;;;;;;;;5036754;28;20634;-70
2023/11/13 12:41:46;;;;;;;6.13;3.28;;;;;;;;;;5040290;28;20053;-70
2023/11/13 12:44:13;;;;;;;7.60;2.85;;;;;;;;;;5042746;28;20029;-70
2023/11/13 12:46:43;;;;;;;8.60;2.95;;;;;;;;;;5035503;28;20601;-69
2023/11/13 12:49:11;;;;;;;8.45;3.08;;;;;;;;;;5036454;28;20041;-70
2023/11/13 12:51:40;;;;;;;8.90;3.13;;;;;;;;;;5011204;28;20037;-70
2023/11/13 12:54:14;;;;;;;15.75;3.78;;;;;;;;;;5030830;28;20724;-70
2023/11/13 12:56:47;;;;;;;4.78;2.83;;;;;;;;;;5021219;28;20467;-71
2023/11/13 12:59:16;;;;;;;12.40;2.97;;;;;;;;;;5029184;28;20029;-71
2023/11/13 13:01:48;;;;;;;7.70;2.80;;;;;;;;;;5039609;28;20340;-71
2023/11/13 13:04:20;;;;;;;6.75;2.90;;;;;;;;;;5038035;28;20048;-70
2023/11/13 13:06:48;;;;;;;7.78;3.17;;;;;;;;;;5023954;28;20155;-70
2023/11/13 13:09:15;;;;;;;8.55;3.20;;;;;;;;;;5015012;28;20111;-71
2023/11/13 13:11:44;;;;;;;12.38;2.83;;;;;;;;;;5034294;28;20035;-70
2023/11/13 13:14:17;;;;;;;7.78;2.92;;;;;;;;;;5042003;28;20540;-70
2023/11/13 13:16:53;;;;;;;9.63;4.35;;;;;;;;;;5033330;28;20330;-71
2023/11/13 13:19:20;;;;;;;7.88;2.92;;;;;;;;;;5039798;28;20316;-71
2023/11/13 13:21:46;;;;;;;7.90;2.78;;;;;;;;;;5039765;28;20035;-70
2023/11/13 13:24:13;;;;;;;5.28;2.65;;;;;;;;;;5041786;28;20477;-71
2023/11/13 13:26:39;;;;;;;8.85;2.92;;;;;;;;;;5037776;28;20032;-69
2023/11/13 13:29:05;;;;;;;6.18;2.42;;;;;;;;;;5019494;28;20115;-69
2023/11/13 13:31:34;;;;;;;8.07;2.72;;;;;;;;;;5017300;28;20329;-70
2023/11/13 13:34:00;;;;;;;5.32;2.40;;;;;;;;;;5021159;28;20033;-72
2023/11/13 13:36:27;;;;;;;7.15;2.65;;;;;;;;;;5042419;28;20021;-70
2023/11/13 13:38:53;;;;;;;5.72;3.00;;;;;;;;;;5033348;28;20044;-68
2023/11/13 13:41:22;;;;;;;4.88;2.50;;;;;;;;;;5015796;28;20076;-71
2023/11/13 13:43:49;;;;;;;9.15;3.15;;;;;;;;;;5034219;28;20029;-70
2023/11/13 13:46:17;;;;;;;9.13;2.72;;;;;;;;;;5032154;28;20037;-70
2023/11/13 13:48:46;;;;;;;5.82;2.50;;;;;;;;;;5032603;28;20123;-69
2023/11/13 13:51:13;;;;;;;9.07;3.00;;;;;;;;;;5037413;28;20025;-70
2023/11/13 13:53:39;;;;;;;8.15;2.63;;;;;;;;;;5011942;28;20028;-69
2023/11/13 13:56:20;;;;;;;11.63;3.03;;;;;;;;;;5030717;28;20033;-69
2023/11/13 13:58:47;;;;;;;7.47;2.50;;;;;;;;;;5043177;28;20119;-69
2023/11/13 14:01:13;;;;;;;9.15;2.55;;;;;;;;;;5034600;28;20059;-70
2023/11/13 14:03:40;;;;;;;7.97;2.85;;;;;;;;;;5029863;28;20715;-70
2023/11/13 14:06:12;;;;;;;17.08;3.63;;;;;;;;;;5038047;28;20572;-70
2023/11/13 14:08:38;;;;;;;7.78;2.65;;;;;;;;;;5034264;28;20051;-70
2023/11/13 14:11:05;;;;;;;9.18;2.75;;;;;;;;;;5035267;28;20037;-70
2023/11/13 14:13:31;;;;;;;5.65;2.60;;;;;;;;;;5034053;28;20037;-69
2023/11/13 14:15:57;;;;;;;10.43;2.83;;;;;;;;;;5037932;28;20024;-67
2023/11/13 14:18:24;;;;;;;8.35;3.00;;;;;;;;;;5040709;28;20063;-69
2023/11/13 14:20:53;;;;;;;6.57;3.17;;;;;;;;;;5044618;28;20060;-70
2023/11/13 14:23:20;;;;;;;8.50;2.38;;;;;;;;;;5034491;28;20025;-69
2023/11/13 14:25:46;;;;;;;8.77;2.90;;;;;;;;;;5019509;28;20055;-70
2023/11/13 14:28:13;;;;;;;6.43;2.70;;;;;;;;;;5046337;28;20029;-71
2023/11/13 14:30:39;;;;;;;10.50;3.25;;;;;;;;;;5023478;28;20450;-69
2023/11/13 14:33:06;;;;;;;12.52;3.67;;;;;;;;;;5037846;28;20086;-69
2023/11/13 14:35:34;;;;;;;11.30;3.40;;;;;;;;;;5033771;28;20033;-69
2023/11/13 14:38:03;;;;;;;13.40;3.15;;;;;;;;;;5037977;28;20025;-68
2023/11/13 14:40:32;;;;;;;12.55;5.30;;;;;;;;;;5045543;28;20160;-70
2023/11/13 14:42:59;;;;;;;11.25;4.00;;;;;;;;;;5022208;28;20074;-67